createdAt,value
2018-12-18T00:02:00.782Z,66.00
2018-12-18T00:04:28.869Z,65.70
2018-12-18T00:07:00.407Z,65.80
2018-12-18T00:09:28.550Z,65.60
2018-12-18T00:11:59.447Z,65.60
2018-12-18T00:14:26.840Z,65.80
2018-12-18T00:16:58.935Z,66.30
2018-12-18T00:19:27.110Z,65.80
2018-12-18T00:21:55.287Z,65.60
2018-12-18T00:24:23.462Z,65.50
2018-12-18T00:26:55.213Z,65.70
2018-12-18T00:29:23.378Z,66.00
2018-12-18T00:31:51.488Z,65.80
2018-12-18T00:34:19.642Z,66.20
2018-12-18T00:36:50.823Z,66.30
2018-12-18T00:39:19.033Z,66.20
2018-12-18T00:41:47.172Z,67.30
2018-12-18T00:44:15.315Z,67.60
2018-12-18T00:46:47.286Z,66.40
2018-12-18T00:49:15.418Z,65.70
2018-12-18T00:51:44.084Z,66.00
2018-12-18T00:54:12.378Z,65.90
2018-12-18T00:56:44.043Z,67.30
2018-12-18T00:59:12.233Z,67.60
2018-12-18T01:01:42.376Z,67.80
2018-12-18T01:04:12.533Z,67.30
2018-12-18T01:06:43.855Z,67.30
2018-12-18T01:09:11.982Z,67.70
2018-12-18T01:11:40.118Z,67.30
2018-12-18T01:14:08.267Z,65.80
2018-12-18T01:16:39.418Z,65.70
2018-12-18T01:19:07.566Z,66.30
2018-12-18T01:21:35.679Z,65.90
2018-12-18T01:24:03.841Z,65.40
2018-12-18T01:26:35.879Z,65.90
2018-12-18T01:29:04.235Z,65.90
2018-12-18T01:31:32.355Z,65.70
2018-12-18T01:34:00.503Z,65.40
2018-12-18T01:36:32.394Z,65.90
2018-12-18T01:39:00.528Z,66.10
2018-12-18T01:41:28.763Z,65.90
2018-12-18T01:46:35.010Z,66.10
2018-12-18T01:49:03.315Z,65.30
2018-12-18T01:51:32.511Z,65.70
2018-12-18T01:54:00.667Z,65.90
2018-12-18T01:56:32.650Z,66.50
2018-12-18T01:59:00.871Z,66.30
2018-12-18T02:01:29.140Z,66.60
2018-12-18T02:03:57.275Z,66.30
2018-12-18T02:06:29.011Z,65.90
2018-12-18T02:08:57.180Z,66.10
2018-12-18T02:11:25.283Z,66.20
2018-12-18T02:13:57.117Z,65.80
2018-12-18T02:16:25.248Z,65.80
2018-12-18T02:18:57.012Z,66.20
2018-12-18T02:21:26.979Z,66.70
2018-12-18T02:24:13.992Z,66.20
2018-12-18T02:26:45.410Z,68.10
2018-12-18T02:29:15.413Z,68.30
2018-12-18T02:31:43.587Z,67.00
2018-12-18T02:34:13.952Z,66.50
2018-12-18T02:36:41.946Z,66.70
2018-12-18T02:39:19.594Z,66.40
2018-12-18T02:41:53.521Z,66.80
2018-12-18T02:44:27.351Z,66.90
2018-12-18T02:47:05.240Z,67.00
2018-12-18T02:49:39.101Z,66.40
2018-12-18T02:52:14.955Z,66.40
2018-12-18T02:54:55.132Z,66.20
2018-12-18T02:57:31.451Z,66.80
2018-12-18T03:00:02.789Z,67.00
2018-12-18T03:02:32.637Z,66.20
2018-12-18T03:05:10.903Z,66.20
2018-12-18T03:07:42.242Z,66.50
2018-12-18T03:10:12.036Z,66.10
2018-12-18T03:12:46.201Z,65.80
2018-12-18T03:15:20.146Z,66.20
2018-12-18T03:17:51.611Z,66.30
2018-12-18T03:20:19.748Z,66.20
2018-12-18T03:22:47.858Z,66.20
2018-12-18T03:25:19.535Z,66.80
2018-12-18T03:27:47.652Z,66.40
2018-12-18T03:30:15.783Z,66.30
2018-12-18T03:32:48.622Z,66.00
2018-12-18T03:35:20.407Z,66.20
2018-12-18T03:37:48.522Z,66.40
2018-12-18T03:40:16.650Z,66.20
2018-12-18T03:42:44.750Z,66.30
2018-12-18T03:45:16.580Z,66.70
2018-12-18T03:47:44.707Z,66.60
2018-12-18T03:50:13.277Z,66.60
2018-12-18T03:52:53.450Z,66.90
2018-12-18T03:55:27.886Z,67.00
2018-12-18T03:58:05.786Z,66.50
2018-12-18T04:00:46.185Z,66.80
2018-12-18T04:03:18.033Z,66.70
2018-12-18T04:05:47.893Z,66.40
2018-12-18T04:08:23.162Z,66.20
2018-12-18T04:10:54.405Z,66.20
2018-12-18T04:13:25.736Z,65.80
2018-12-18T04:15:57.183Z,65.50
2018-12-18T04:18:25.295Z,65.50
2018-12-18T04:20:53.415Z,66.10
2018-12-18T04:23:21.542Z,66.00
2018-12-18T04:25:55.068Z,66.60
2018-12-18T04:28:23.281Z,66.20
2018-12-18T04:30:51.431Z,65.50
2018-12-18T04:33:23.143Z,65.30
2018-12-18T04:35:57.162Z,65.00
2018-12-18T04:38:28.404Z,65.20
2018-12-18T04:40:57.434Z,65.00
2018-12-18T04:43:27.101Z,64.70
2018-12-18T04:45:59.128Z,65.00
2018-12-18T04:48:31.075Z,65.00
2018-12-18T04:51:09.251Z,64.80
2018-12-18T04:53:44.726Z,64.80
2018-12-18T04:56:22.561Z,65.10
2018-12-18T04:58:56.415Z,65.10
2018-12-18T05:01:34.177Z,65.40
2018-12-18T05:04:11.747Z,65.20
2018-12-18T05:06:43.271Z,65.20
2018-12-18T05:09:14.899Z,65.40
2018-12-18T05:11:44.956Z,65.50
2018-12-18T05:14:16.819Z,65.50
2018-12-18T05:16:57.430Z,66.20
2018-12-18T05:19:27.222Z,65.50
2018-12-18T05:22:15.269Z,65.70
2018-12-18T05:24:44.990Z,66.00
2018-12-18T05:27:16.783Z,66.20
2018-12-18T05:29:45.609Z,66.40
2018-12-18T05:32:19.801Z,66.30
2018-12-18T05:34:56.483Z,66.30
2018-12-18T05:37:23.026Z,66.00
2018-12-18T05:39:54.900Z,65.90
2018-12-18T05:42:29.461Z,65.80
2018-12-18T05:45:01.085Z,65.80
2018-12-18T05:47:35.056Z,65.90
2018-12-18T05:50:04.697Z,65.80
2018-12-18T05:55:14.789Z,65.50
2018-12-18T05:57:48.478Z,65.50
2018-12-18T06:00:18.079Z,65.50
2018-12-18T06:02:56.486Z,65.50
2018-12-18T06:05:27.637Z,65.20
2018-12-18T06:07:56.793Z,65.40
2018-12-18T06:10:36.850Z,65.60
2018-12-18T06:13:06.699Z,65.90
2018-12-18T06:15:38.347Z,65.80
2018-12-18T06:18:07.032Z,65.50
2018-12-18T06:20:35.180Z,66.00
2018-12-18T06:23:03.482Z,66.20
2018-12-18T06:25:39.383Z,66.30
2018-12-18T06:28:10.828Z,66.40
2018-12-18T06:30:42.945Z,66.10
2018-12-18T06:33:18.340Z,65.90
2018-12-18T06:35:49.781Z,66.30
2018-12-18T06:38:23.357Z,66.30
2018-12-18T06:40:51.517Z,66.50
2018-12-18T06:43:30.082Z,66.30
2018-12-18T06:46:01.597Z,66.00
2018-12-18T06:48:29.831Z,65.80
2018-12-18T06:50:57.983Z,66.00
2018-12-18T06:53:26.310Z,66.30
2018-12-18T06:55:54.608Z,66.60
2018-12-18T06:58:22.759Z,67.10
2018-12-18T07:00:50.984Z,67.20
2018-12-18T07:03:19.435Z,66.60
2018-12-18T07:05:50.722Z,67.80
2018-12-18T07:08:22.777Z,66.70
2018-12-18T07:10:57.219Z,66.50
2018-12-18T07:13:37.592Z,67.80
2018-12-18T07:16:09.728Z,67.00
2018-12-18T07:18:37.943Z,66.60
2018-12-18T07:21:07.020Z,66.40
2018-12-18T07:23:35.239Z,66.40
2018-12-18T07:26:07.099Z,66.40
2018-12-18T07:28:35.252Z,66.60
2018-12-18T07:31:03.447Z,67.30
2018-12-18T07:33:31.592Z,67.30
2018-12-18T07:36:03.278Z,67.20
2018-12-18T07:38:31.534Z,67.40
2018-12-18T07:40:59.859Z,66.70
2018-12-18T07:43:28.067Z,66.30
2018-12-18T07:46:00.199Z,66.20
2018-12-18T07:48:28.321Z,66.40
2018-12-18T07:50:56.424Z,66.20
2018-12-18T07:53:24.571Z,66.70
2018-12-18T07:56:00.232Z,66.90
2018-12-18T07:58:26.848Z,67.30
2018-12-18T08:00:54.974Z,67.00
2018-12-18T08:03:23.131Z,66.70
2018-12-18T08:05:54.275Z,66.30
2018-12-18T08:08:22.506Z,66.40
2018-12-18T08:10:54.554Z,66.10
2018-12-18T08:13:22.698Z,66.10
2018-12-18T08:15:54.583Z,66.30
2018-12-18T08:18:22.787Z,67.30
2018-12-18T08:20:50.970Z,66.60
2018-12-18T08:23:19.308Z,67.00
2018-12-18T08:25:50.899Z,67.50
2018-12-18T08:28:19.126Z,67.20
2018-12-18T08:30:48.510Z,66.50
2018-12-18T08:33:16.744Z,66.50
2018-12-18T08:35:47.890Z,65.90
2018-12-18T08:38:19.037Z,65.90
2018-12-18T08:40:59.265Z,66.10
2018-12-18T08:43:37.626Z,66.10
2018-12-18T08:46:15.656Z,66.00
2018-12-18T08:48:47.302Z,65.80
2018-12-18T08:51:29.043Z,65.50
2018-12-18T08:54:00.044Z,64.70
2018-12-18T08:56:46.961Z,64.60
2018-12-18T08:59:16.843Z,65.60
2018-12-18T09:01:46.946Z,65.30
2018-12-18T09:04:27.682Z,65.30
2018-12-18T09:07:02.157Z,64.90
2018-12-18T09:09:43.370Z,64.40
2018-12-18T09:12:16.231Z,64.60
2018-12-18T09:14:58.158Z,65.00
2018-12-18T09:17:39.866Z,64.60
2018-12-18T09:20:11.096Z,64.90
2018-12-18T09:22:45.632Z,64.80
2018-12-18T09:25:14.969Z,65.20
2018-12-18T09:27:45.241Z,65.30
2018-12-18T09:30:13.504Z,65.30
2018-12-18T09:32:45.355Z,64.60
2018-12-18T09:35:26.312Z,64.10
2018-12-18T09:38:03.702Z,64.00
2018-12-18T09:40:36.093Z,63.60
2018-12-18T09:43:12.745Z,64.10
2018-12-18T09:45:44.329Z,64.10
2018-12-18T09:48:22.115Z,63.70
2018-12-18T09:50:53.670Z,65.20
2018-12-18T09:53:27.900Z,64.30
2018-12-18T09:56:08.943Z,64.00
2018-12-18T09:58:38.793Z,63.40
2018-12-18T10:01:13.312Z,63.30
2018-12-18T10:03:44.446Z,63.30
2018-12-18T10:06:18.955Z,62.20
2018-12-18T10:08:54.145Z,62.80
2018-12-18T10:11:24.219Z,62.40
2018-12-18T10:13:54.271Z,64.20
2018-12-18T10:16:26.293Z,62.70
2018-12-18T10:18:56.227Z,62.60
2018-12-18T10:21:24.401Z,62.40
2018-12-18T10:23:52.571Z,62.20
2018-12-18T10:26:23.831Z,62.40
2018-12-18T10:28:51.967Z,62.60
2018-12-18T10:31:23.202Z,62.90
2018-12-18T10:33:54.882Z,62.10
2018-12-18T10:36:28.449Z,62.60
2018-12-18T10:39:05.924Z,62.90
2018-12-18T10:41:40.791Z,62.80
2018-12-18T10:44:12.411Z,62.70
2018-12-18T10:46:44.460Z,62.10
2018-12-18T10:49:16.572Z,61.80
2018-12-18T10:51:51.781Z,62.10
2018-12-18T10:54:23.127Z,62.40
2018-12-18T10:57:10.098Z,62.80
2018-12-18T10:59:41.754Z,63.80
2018-12-18T11:02:11.747Z,62.60
2018-12-18T11:04:39.875Z,62.20
2018-12-18T11:07:11.921Z,61.70
2018-12-18T11:09:40.062Z,61.70
2018-12-18T11:12:08.181Z,61.70
2018-12-18T11:14:36.306Z,61.80
2018-12-18T11:17:08.338Z,62.10
2018-12-18T11:19:36.487Z,61.90
2018-12-18T11:22:04.602Z,61.70
2018-12-18T11:24:32.734Z,60.60
2018-12-18T11:27:06.539Z,61.60
2018-12-18T11:29:40.359Z,61.80
2018-12-18T11:32:09.673Z,61.90
2018-12-18T11:34:42.772Z,61.80
2018-12-18T11:37:14.143Z,61.90
2018-12-18T11:39:42.364Z,62.00
2018-12-18T11:42:10.551Z,61.80
2018-12-18T11:44:38.706Z,61.70
2018-12-18T11:47:10.810Z,60.80
2018-12-18T11:49:38.958Z,60.20
2018-12-18T11:52:07.046Z,60.50
2018-12-18T11:54:35.180Z,60.90
2018-12-18T11:57:06.351Z,60.30
2018-12-18T11:59:34.481Z,59.90
2018-12-18T12:02:02.676Z,59.50
2018-12-18T12:04:30.783Z,59.40
2018-12-18T12:07:02.838Z,59.10
2018-12-18T12:09:30.964Z,59.30
2018-12-18T12:11:59.068Z,59.10
2018-12-18T12:14:27.198Z,59.40
2018-12-18T12:16:58.446Z,59.30
2018-12-18T12:19:26.587Z,59.10
2018-12-18T12:21:54.779Z,59.50
2018-12-18T12:24:22.950Z,59.40
2018-12-18T12:26:58.931Z,59.70
2018-12-18T12:29:27.065Z,59.90
2018-12-18T12:31:55.201Z,59.70
2018-12-18T12:34:23.318Z,59.10
2018-12-18T12:36:54.566Z,58.80
2018-12-18T12:39:22.721Z,58.30
2018-12-18T12:41:50.814Z,57.90
2018-12-18T12:44:18.957Z,57.10
2018-12-18T12:46:50.799Z,56.00
2018-12-18T12:49:18.934Z,55.50
2018-12-18T12:51:47.501Z,54.90
2018-12-18T12:54:15.658Z,55.20
2018-12-18T12:56:47.509Z,56.10
2018-12-18T12:59:15.643Z,56.00
2018-12-18T13:01:46.854Z,55.90
2018-12-18T13:04:15.012Z,55.90
2018-12-18T13:06:46.985Z,55.80
2018-12-18T13:09:15.225Z,55.80
2018-12-18T13:11:43.423Z,55.70
2018-12-18T13:14:11.572Z,56.10
2018-12-18T13:16:52.279Z,56.20
2018-12-18T13:19:24.016Z,55.90
2018-12-18T13:21:56.154Z,55.70
2018-12-18T13:24:28.207Z,55.90
2018-12-18T13:27:00.130Z,58.10
2018-12-18T13:29:28.430Z,56.60
2018-12-18T13:31:56.589Z,55.80
2018-12-18T13:34:24.742Z,55.30
2018-12-18T13:36:56.466Z,54.80
2018-12-18T13:39:24.614Z,54.70
2018-12-18T13:41:52.714Z,54.20
2018-12-18T13:44:20.830Z,54.20
2018-12-18T13:46:58.926Z,54.10
2018-12-18T13:49:32.656Z,53.90
2018-12-18T13:52:10.965Z,54.00
2018-12-18T13:54:42.150Z,54.00
2018-12-18T13:57:13.706Z,54.20
2018-12-18T13:59:41.863Z,54.50
2018-12-18T14:02:09.982Z,54.50
2018-12-18T14:04:38.642Z,54.70
2018-12-18T14:07:09.968Z,54.80
2018-12-18T14:09:38.269Z,54.90
2018-12-18T14:12:06.381Z,55.10
2018-12-18T14:14:34.515Z,55.20
2018-12-18T14:17:06.638Z,55.40
2018-12-18T14:19:34.763Z,55.70
2018-12-18T14:22:02.907Z,55.90
2018-12-18T14:24:31.014Z,56.10
2018-12-18T14:27:02.371Z,56.40
2018-12-18T14:29:30.496Z,56.40
2018-12-18T14:31:58.598Z,56.70
2018-12-18T14:34:26.686Z,56.90
2018-12-18T14:36:57.846Z,56.90
2018-12-18T14:39:25.939Z,57.00
2018-12-18T14:41:54.061Z,57.20
2018-12-18T14:44:22.167Z,57.40
2018-12-18T14:46:53.510Z,57.70
2018-12-18T14:49:21.594Z,58.20
2018-12-18T14:51:49.728Z,58.00
2018-12-18T14:54:17.993Z,57.90
2018-12-18T14:56:50.018Z,58.00
2018-12-18T14:59:18.388Z,58.10
2018-12-18T15:01:46.518Z,58.30
2018-12-18T15:04:14.614Z,58.40
2018-12-18T15:06:46.687Z,58.50
2018-12-18T15:09:14.850Z,58.60
2018-12-18T15:11:42.954Z,58.80
2018-12-18T15:14:11.076Z,58.80
2018-12-18T15:16:42.683Z,58.80
2018-12-18T15:19:14.438Z,58.90
2018-12-18T15:21:52.847Z,58.90
2018-12-18T15:24:33.444Z,58.90
2018-12-18T15:27:05.269Z,59.00
2018-12-18T15:29:41.694Z,59.10
2018-12-18T15:32:22.142Z,59.10
2018-12-18T15:34:53.654Z,59.30
2018-12-18T15:37:25.411Z,59.20
2018-12-18T15:39:53.526Z,59.30
2018-12-18T15:42:21.656Z,59.30
2018-12-18T15:44:49.850Z,59.40
2018-12-18T15:47:25.778Z,59.40
2018-12-18T15:49:53.907Z,59.40
2018-12-18T15:52:31.869Z,59.30
2018-12-18T15:55:03.395Z,59.50
2018-12-18T15:57:32.116Z,59.50
2018-12-18T16:00:00.541Z,59.50
2018-12-18T16:02:28.727Z,59.60
2018-12-18T16:04:56.850Z,59.60
2018-12-18T16:07:26.042Z,59.70
2018-12-18T16:09:54.517Z,59.70
2018-12-18T16:12:22.946Z,59.80
2018-12-18T16:14:51.108Z,59.80
2018-12-18T16:17:25.708Z,59.70
2018-12-18T16:20:05.948Z,59.80
2018-12-18T16:22:36.131Z,59.80
2018-12-18T16:25:04.295Z,59.90
2018-12-18T16:27:32.562Z,59.70
2018-12-18T16:30:00.653Z,59.70
2018-12-18T16:32:28.879Z,59.70
2018-12-18T16:34:56.988Z,59.70
2018-12-18T16:37:28.639Z,59.70
2018-12-18T16:39:56.727Z,59.80
2018-12-18T16:42:24.831Z,60.00
2018-12-18T16:44:52.924Z,59.80
2018-12-18T16:49:58.593Z,59.80
2018-12-18T16:52:26.722Z,59.70
2018-12-18T16:54:54.814Z,59.70
2018-12-18T16:57:26.448Z,59.80
2018-12-18T16:59:54.527Z,59.70
2018-12-18T17:02:22.696Z,59.60
2018-12-18T17:04:50.786Z,59.70
2018-12-18T17:07:22.245Z,59.70
2018-12-18T17:09:50.339Z,60.30
2018-12-18T17:12:18.443Z,59.70
2018-12-18T17:14:46.514Z,59.70
2018-12-18T17:17:17.696Z,59.80
2018-12-18T17:19:45.784Z,59.80
2018-12-18T17:22:13.923Z,59.70
2018-12-18T17:24:42.018Z,59.60
2018-12-18T17:27:13.179Z,59.60
2018-12-18T17:29:42.774Z,60.20
2018-12-18T17:32:10.905Z,59.70
2018-12-18T17:34:39.001Z,59.60
2018-12-18T17:37:10.487Z,59.60
2018-12-18T17:39:38.586Z,59.70
2018-12-18T17:42:06.739Z,59.70
2018-12-18T17:44:34.855Z,59.80
2018-12-18T17:47:08.518Z,59.60
2018-12-18T17:49:39.319Z,59.60
2018-12-18T17:52:07.422Z,59.60
2018-12-18T17:54:35.526Z,59.60
2018-12-18T17:57:07.462Z,59.50
2018-12-18T17:59:35.579Z,59.30
2018-12-18T18:02:03.811Z,59.40
2018-12-18T18:04:31.966Z,59.60
2018-12-18T18:07:03.614Z,59.50
2018-12-18T18:09:31.753Z,59.50
2018-12-18T18:11:59.834Z,59.50
2018-12-18T18:14:27.993Z,59.50
2018-12-18T18:17:08.274Z,59.50
2018-12-18T18:19:39.911Z,59.60
2018-12-18T18:22:20.924Z,60.10
2018-12-18T18:24:59.155Z,59.50
2018-12-18T18:27:30.891Z,59.50
2018-12-18T18:29:59.094Z,59.50
2018-12-18T18:32:27.398Z,59.40
2018-12-18T18:35:00.038Z,59.50
2018-12-18T18:37:41.231Z,59.40
2018-12-18T18:40:15.514Z,59.30
2018-12-18T18:42:47.338Z,59.30
2018-12-18T18:45:16.460Z,59.30
2018-12-18T18:47:49.128Z,59.20
2018-12-18T18:50:24.393Z,59.20
2018-12-18T18:52:52.724Z,59.20
2018-12-18T18:55:20.897Z,59.30
2018-12-18T18:57:49.097Z,59.20
2018-12-18T19:00:17.383Z,59.10
2018-12-18T19:02:45.574Z,59.20
2018-12-18T19:05:13.743Z,59.00
2018-12-18T19:07:41.985Z,59.00
2018-12-18T19:10:10.146Z,59.00
2018-12-18T19:12:38.638Z,59.00
2018-12-18T19:15:06.825Z,58.90
2018-12-18T19:17:35.011Z,58.90
2018-12-18T19:20:03.754Z,58.90
2018-12-18T19:22:32.040Z,58.90
2018-12-18T19:25:00.377Z,58.90
2018-12-18T19:27:31.531Z,59.00
2018-12-18T19:29:59.648Z,58.90
2018-12-18T19:32:27.754Z,59.00
2018-12-18T19:34:55.877Z,58.90
2018-12-18T19:37:27.064Z,59.00
2018-12-18T19:39:55.340Z,59.00
2018-12-18T19:42:23.694Z,59.00
2018-12-18T19:44:51.991Z,59.10
2018-12-18T19:47:23.321Z,59.00
2018-12-18T19:49:51.492Z,59.10
2018-12-18T19:52:19.630Z,58.90
2018-12-18T19:54:54.340Z,59.00
2018-12-18T19:57:25.906Z,59.00
2018-12-18T19:59:54.055Z,59.20
2018-12-18T20:02:22.145Z,59.30
2018-12-18T20:04:50.271Z,59.40
2018-12-18T20:07:22.243Z,59.40
2018-12-18T20:09:50.358Z,59.40
2018-12-18T20:12:18.442Z,59.40
2018-12-18T20:14:46.745Z,59.40
2018-12-18T20:17:18.712Z,59.50
2018-12-18T20:19:47.111Z,59.50
2018-12-18T20:22:15.283Z,59.50
2018-12-18T20:24:43.415Z,59.50
2018-12-18T20:27:15.193Z,59.50
2018-12-18T20:29:43.394Z,59.60
2018-12-18T20:32:11.518Z,59.70
2018-12-18T20:34:39.641Z,59.70
2018-12-18T20:37:10.852Z,59.60
2018-12-18T20:39:38.966Z,59.70
2018-12-18T20:42:07.056Z,59.70
2018-12-18T20:44:35.155Z,59.60
2018-12-18T20:47:07.203Z,59.80
2018-12-18T20:49:35.381Z,59.80
2018-12-18T20:52:03.465Z,59.60
2018-12-18T20:54:31.585Z,59.70
2018-12-18T20:57:02.914Z,59.80
2018-12-18T20:59:31.121Z,59.70
2018-12-18T21:01:59.216Z,59.70
2018-12-18T21:04:27.443Z,59.70
2018-12-18T21:06:59.431Z,59.70
2018-12-18T21:09:27.694Z,59.70
2018-12-18T21:11:55.918Z,59.80
2018-12-18T21:14:24.179Z,60.00
2018-12-18T21:16:56.038Z,59.80
2018-12-18T21:19:24.347Z,59.80
2018-12-18T21:21:52.614Z,59.90
2018-12-18T21:24:20.862Z,59.90
2018-12-18T21:26:52.942Z,59.80
2018-12-18T21:29:21.189Z,59.80
2018-12-18T21:31:49.453Z,59.90
2018-12-18T21:34:17.703Z,59.90
2018-12-18T21:36:49.487Z,59.90
2018-12-18T21:39:17.738Z,59.80
2018-12-18T21:41:45.960Z,59.90
2018-12-18T21:44:14.196Z,59.90
2018-12-18T21:46:46.071Z,59.80
2018-12-18T21:49:14.370Z,59.90
2018-12-18T21:51:43.111Z,60.00
2018-12-18T21:54:11.351Z,60.10
2018-12-18T21:56:42.627Z,60.10
2018-12-18T21:59:10.874Z,60.10
2018-12-18T22:01:39.096Z,60.20
2018-12-18T22:04:07.327Z,60.20
2018-12-18T22:06:39.394Z,60.10
2018-12-18T22:09:08.210Z,60.20
2018-12-18T22:11:36.435Z,60.10
2018-12-18T22:14:04.686Z,60.20
2018-12-18T22:16:36.850Z,60.20
2018-12-18T22:19:05.091Z,60.10
2018-12-18T22:21:33.324Z,60.20
2018-12-18T22:24:01.571Z,60.10
2018-12-18T22:26:33.411Z,60.00
2018-12-18T22:29:01.534Z,60.00
2018-12-18T22:31:29.613Z,60.20
2018-12-18T22:33:57.716Z,60.10
2018-12-18T22:36:29.767Z,60.10
2018-12-18T22:38:57.849Z,60.30
2018-12-18T22:41:25.950Z,60.40
2018-12-18T22:43:54.031Z,60.40
2018-12-18T22:46:25.448Z,60.20
2018-12-18T22:48:53.542Z,60.20
2018-12-18T22:51:21.649Z,60.30
2018-12-18T22:53:49.730Z,60.40
2018-12-18T22:56:21.270Z,60.50
2018-12-18T22:58:49.382Z,60.40
2018-12-18T23:01:22.955Z,60.30
2018-12-18T23:03:51.035Z,60.30
2018-12-18T23:06:22.694Z,60.30
2018-12-18T23:08:50.795Z,60.40
2018-12-18T23:11:18.915Z,60.50
2018-12-18T23:13:46.986Z,60.60
2018-12-18T23:16:18.518Z,60.60
2018-12-18T23:18:46.612Z,60.60
2018-12-18T23:21:14.807Z,60.70
2018-12-18T23:23:42.894Z,60.70
2018-12-18T23:26:14.956Z,60.60
2018-12-18T23:28:43.041Z,60.70
2018-12-18T23:31:11.139Z,60.70
2018-12-18T23:33:39.242Z,60.80
2018-12-18T23:36:10.885Z,60.70
2018-12-18T23:38:38.986Z,60.50
2018-12-18T23:41:07.134Z,60.70
2018-12-18T23:43:35.229Z,60.60
2018-12-18T23:46:07.170Z,60.50
2018-12-18T23:48:39.664Z,60.60
2018-12-18T23:51:05.399Z,60.80
2018-12-18T23:53:33.571Z,60.80
2018-12-18T23:56:07.388Z,60.80
2018-12-18T23:58:49.589Z,60.80
